createdAt,value
2022-08-21T00:02:24.909Z,97025.16
2022-08-21T00:06:24.823Z,97020.91
2022-08-21T00:10:22.783Z,97026.28
2022-08-21T00:14:19.856Z,97004.56
2022-08-21T00:18:19.190Z,96972.16
2022-08-21T00:22:16.462Z,96986.06
2022-08-21T00:26:13.613Z,96982.91
2022-08-21T00:30:17.726Z,97005.13
2022-08-21T00:34:20.542Z,96968.16
2022-08-21T00:38:17.660Z,97006.97
2022-08-21T00:42:18.698Z,97009.38
2022-08-21T00:46:15.657Z,96963.56
2022-08-21T00:50:21.842Z,97004.00
2022-08-21T00:54:25.704Z,96984.47
2022-08-21T00:58:25.732Z,96991.34
2022-08-21T01:02:23.332Z,96981.75
2022-08-21T01:06:20.400Z,96973.44
2022-08-21T01:10:24.451Z,96995.13
2022-08-21T01:14:22.240Z,96976.34
2022-08-21T01:18:21.788Z,96997.78
2022-08-21T01:22:20.516Z,96997.22
2022-08-21T01:26:24.627Z,96971.75
2022-08-21T01:30:33.437Z,96991.28
2022-08-21T01:34:30.484Z,96988.59
2022-08-21T01:38:28.538Z,96980.59
2022-08-21T01:42:26.556Z,96995.06
2022-08-21T01:46:23.826Z,96980.06
2022-08-21T01:50:22.467Z,96988.69
2022-08-21T01:54:19.560Z,96986.00
2022-08-21T01:58:16.739Z,96998.28
2022-08-21T02:02:13.723Z,96958.13
2022-08-21T02:06:18.867Z,96974.72
2022-08-21T02:10:26.729Z,96998.50
2022-08-21T02:14:32.329Z,96979.75
2022-08-21T02:18:30.712Z,96973.00
2022-08-21T02:22:27.682Z,96967.00
2022-08-21T02:26:24.835Z,96985.25
2022-08-21T02:30:31.031Z,96982.59
2022-08-21T02:34:29.257Z,96968.13
2022-08-21T02:38:32.089Z,96963.56
2022-08-21T02:42:29.135Z,96947.31
2022-08-21T02:46:26.358Z,96955.88
2022-08-21T02:50:29.812Z,96986.41
2022-08-21T02:54:26.949Z,96986.88
2022-08-21T02:58:29.741Z,96982.16
2022-08-21T03:02:27.881Z,96960.75
2022-08-21T03:06:25.655Z,96967.16
2022-08-21T03:10:23.162Z,96980.22
2022-08-21T03:14:20.233Z,96986.06
2022-08-21T03:18:19.963Z,96982.59
2022-08-21T03:22:17.090Z,96964.25
2022-08-21T03:26:14.316Z,96981.41
2022-08-21T03:30:13.225Z,96972.28
2022-08-21T03:34:10.425Z,96977.09
2022-08-21T03:38:07.605Z,96954.03
2022-08-21T03:42:06.071Z,96962.78
2022-08-21T03:46:05.249Z,96990.84
2022-08-21T03:50:05.374Z,96962.66
2022-08-21T03:54:05.075Z,96992.91
2022-08-21T03:58:16.984Z,96940.38
2022-08-21T04:02:20.829Z,96995.72
2022-08-21T04:06:19.191Z,96988.31
2022-08-21T04:10:16.610Z,96986.69
2022-08-21T04:14:15.304Z,96997.00
2022-08-21T04:18:12.433Z,97005.38
2022-08-21T04:22:09.595Z,97001.31
2022-08-21T04:26:07.768Z,96999.69
2022-08-21T04:30:10.108Z,97003.44
2022-08-21T04:34:07.327Z,97016.38
2022-08-21T04:38:04.369Z,96996.56
2022-08-21T04:42:01.432Z,96985.84
2022-08-21T04:45:58.448Z,97011.88
2022-08-21T04:49:55.469Z,97021.53
2022-08-21T04:54:00.115Z,97035.75
2022-08-21T04:57:58.519Z,97034.72
2022-08-21T05:01:57.672Z,97036.06
2022-08-21T05:05:55.571Z,97025.09
2022-08-21T05:09:53.433Z,97028.63
2022-08-21T05:13:54.942Z,97036.44
2022-08-21T05:18:01.136Z,97026.75
2022-08-21T05:21:59.257Z,97023.53
2022-08-21T05:25:57.003Z,97016.56
2022-08-21T05:29:54.041Z,97049.25
2022-08-21T05:33:52.031Z,97055.16
2022-08-21T05:37:49.179Z,97053.03
2022-08-21T05:41:46.268Z,97055.97
2022-08-21T05:45:44.539Z,97057.31
2022-08-21T05:49:41.673Z,97049.84
2022-08-21T05:53:40.403Z,97043.41
2022-08-21T05:57:37.524Z,97048.25
2022-08-21T06:01:34.595Z,97047.69
2022-08-21T06:05:36.538Z,97068.34
2022-08-21T06:09:34.471Z,97050.38
2022-08-21T06:13:34.545Z,97073.94
2022-08-21T06:17:31.847Z,97072.84
2022-08-21T06:21:29.017Z,97062.41
2022-08-21T06:25:26.322Z,97055.19
2022-08-21T06:29:24.224Z,97055.72
2022-08-21T06:33:21.389Z,97089.69
2022-08-21T06:37:18.521Z,97075.38
2022-08-21T06:41:16.145Z,97067.94
2022-08-21T06:45:13.219Z,97055.00
2022-08-21T06:49:13.530Z,97072.34
2022-08-21T06:53:21.709Z,97065.66
2022-08-21T06:57:18.984Z,97061.59
2022-08-21T07:01:16.417Z,97044.00
2022-08-21T07:05:18.397Z,97060.63
2022-08-21T07:09:16.008Z,97071.84
2022-08-21T07:13:13.443Z,97011.81
2022-08-21T07:17:10.519Z,97050.91
2022-08-21T07:21:09.643Z,97062.41
2022-08-21T07:25:07.960Z,97067.91
2022-08-21T07:29:05.834Z,97050.75
2022-08-21T07:33:02.871Z,97055.31
2022-08-21T07:37:00.009Z,97044.91
2022-08-21T07:41:17.878Z,97065.59
2022-08-21T07:45:16.515Z,97041.06
2022-08-21T07:49:13.646Z,97064.28
2022-08-21T07:53:10.879Z,97054.28
2022-08-21T07:57:07.909Z,97070.34
2022-08-21T08:01:07.648Z,97041.34
2022-08-21T08:05:08.924Z,97061.22
2022-08-21T08:09:05.920Z,97019.41
2022-08-21T08:13:03.086Z,97041.22
2022-08-21T08:17:00.155Z,97066.13
2022-08-21T08:20:57.181Z,97055.34
2022-08-21T08:24:55.410Z,97044.78
2022-08-21T08:28:52.491Z,97062.63
2022-08-21T08:32:50.603Z,97066.16
2022-08-21T08:36:47.634Z,97044.84
2022-08-21T08:41:20.021Z,97066.88
2022-08-21T08:45:24.858Z,97064.38
2022-08-21T08:49:44.914Z,97070.88
2022-08-21T08:53:58.297Z,97075.09
2022-08-21T08:57:56.684Z,97078.59
2022-08-21T09:01:53.971Z,97071.31
2022-08-21T09:05:56.582Z,97072.41
2022-08-21T09:10:19.990Z,97074.25
2022-08-21T09:14:54.169Z,97073.75
2022-08-21T09:19:24.965Z,97057.28
2022-08-21T09:23:47.223Z,97072.38
2022-08-21T09:27:44.486Z,97044.09
2022-08-21T09:31:41.582Z,97046.88
2022-08-21T09:35:54.183Z,97059.91
2022-08-21T09:39:51.416Z,97046.94
2022-08-21T09:43:54.976Z,97047.38
2022-08-21T09:47:52.080Z,97049.56
2022-08-21T09:51:55.757Z,97035.06
2022-08-21T09:56:24.292Z,97058.41
2022-08-21T10:00:33.694Z,97049.22
2022-08-21T10:04:37.623Z,97054.88
2022-08-21T10:08:37.582Z,97049.81
2022-08-21T10:13:04.286Z,97044.53
2022-08-21T10:17:42.940Z,97037.22
2022-08-21T10:21:58.028Z,97032.25
2022-08-21T10:26:53.121Z,97001.44
2022-08-21T10:31:13.121Z,97031.34
2022-08-21T10:35:33.188Z,97034.03
2022-08-21T10:39:43.053Z,97025.00
2022-08-21T10:44:02.415Z,97005.41
2022-08-21T10:48:09.075Z,97030.44
2022-08-21T10:52:56.289Z,97017.84
2022-08-21T10:57:06.591Z,97013.19
2022-08-21T11:01:24.082Z,96984.09
2022-08-21T11:05:36.897Z,96996.59
2022-08-21T11:09:34.124Z,96994.06
2022-08-21T11:13:59.588Z,97007.91
2022-08-21T11:18:34.864Z,97014.25
2022-08-21T11:23:09.317Z,96998.19
2022-08-21T11:27:38.794Z,97016.13
2022-08-21T11:32:18.010Z,97003.59
2022-08-21T11:36:27.318Z,97004.63
2022-08-21T11:41:09.330Z,96981.69
2022-08-21T11:45:37.048Z,96992.63
2022-08-21T11:49:45.765Z,96991.53
2022-08-21T11:53:56.207Z,96984.69
2022-08-21T11:58:26.850Z,96978.34
2022-08-21T12:02:32.630Z,96967.75
2022-08-21T12:06:42.832Z,96958.72
2022-08-21T12:10:48.178Z,96961.41
2022-08-21T12:14:50.251Z,96951.31
2022-08-21T12:18:47.405Z,96955.69
2022-08-21T12:22:55.581Z,96943.13
2022-08-21T12:27:00.500Z,96937.34
2022-08-21T12:30:58.493Z,96933.66
2022-08-21T12:35:03.832Z,96933.94
2022-08-21T12:39:14.278Z,96922.56
2022-08-21T12:43:36.868Z,96897.03
2022-08-21T12:47:58.410Z,96914.31
2022-08-21T12:52:21.186Z,96900.59
2022-08-21T12:56:24.656Z,96893.13
2022-08-21T13:00:27.315Z,96893.56
2022-08-21T13:04:37.348Z,96897.13
2022-08-21T13:08:45.505Z,96895.09
2022-08-21T13:12:45.564Z,96880.00
2022-08-21T13:16:42.800Z,96899.41
2022-08-21T13:20:43.434Z,96890.69
2022-08-21T13:24:43.210Z,96894.28
2022-08-21T13:28:41.198Z,96891.84
2022-08-21T13:32:49.227Z,96885.63
2022-08-21T13:36:48.002Z,96882.06
2022-08-21T13:40:51.838Z,96888.31
2022-08-21T13:44:49.456Z,96863.19
2022-08-21T13:48:46.709Z,96866.00
2022-08-21T13:53:25.026Z,96884.69
2022-08-21T13:57:31.426Z,96877.50
2022-08-21T14:01:37.012Z,96863.81
2022-08-21T14:05:39.888Z,96861.22
2022-08-21T14:09:44.104Z,96875.25
2022-08-21T14:13:56.034Z,96879.94
2022-08-21T14:17:53.597Z,96869.69
2022-08-21T14:21:51.236Z,96863.19
2022-08-21T14:25:48.276Z,96849.34
2022-08-21T14:29:45.433Z,96867.16
2022-08-21T14:33:42.540Z,96866.13
2022-08-21T14:37:43.802Z,96850.25
2022-08-21T14:41:41.250Z,96841.94
2022-08-21T14:45:41.524Z,96855.53
2022-08-21T14:49:38.588Z,96853.41
2022-08-21T14:53:35.785Z,96853.13
2022-08-21T14:57:33.280Z,96829.91
2022-08-21T15:01:30.452Z,96850.75
2022-08-21T15:05:32.842Z,96851.53
2022-08-21T15:09:30.720Z,96841.25
2022-08-21T15:13:29.238Z,96845.66
2022-08-21T15:17:26.855Z,96836.66
2022-08-21T15:21:23.920Z,96828.25
2022-08-21T15:25:21.007Z,96832.28
2022-08-21T15:29:22.470Z,96825.47
2022-08-21T15:33:20.379Z,96828.22
2022-08-21T15:37:17.412Z,96807.25
2022-08-21T15:41:15.312Z,96801.75
2022-08-21T15:45:14.297Z,96823.78
2022-08-21T15:49:12.323Z,96809.25
2022-08-21T15:53:09.358Z,96796.31
2022-08-21T15:57:06.531Z,96813.00
2022-08-21T16:01:03.801Z,96809.97
2022-08-21T16:05:01.171Z,96803.75
2022-08-21T16:08:59.801Z,96797.47
2022-08-21T16:13:05.057Z,96804.53
2022-08-21T16:17:02.116Z,96781.84
2022-08-21T16:20:59.148Z,96788.28
2022-08-21T16:24:56.207Z,96784.34
2022-08-21T16:28:58.221Z,96792.22
2022-08-21T16:32:56.679Z,96762.56
2022-08-21T16:36:53.882Z,96792.56
2022-08-21T16:40:52.096Z,96779.94
2022-08-21T16:44:49.451Z,96784.63
2022-08-21T16:48:48.556Z,96777.50
2022-08-21T16:52:45.553Z,96774.41
2022-08-21T16:56:47.011Z,96781.81
2022-08-21T17:00:45.338Z,96779.63
2022-08-21T17:04:42.447Z,96778.56
2022-08-21T17:08:39.690Z,96789.13
2022-08-21T17:12:36.939Z,96788.41
2022-08-21T17:16:34.950Z,96791.91
2022-08-21T17:20:32.667Z,96796.06
2022-08-21T17:24:32.151Z,96780.72
2022-08-21T17:28:36.888Z,96791.63
2022-08-21T17:32:34.204Z,96782.53
2022-08-21T17:36:31.565Z,96784.19
2022-08-21T17:40:30.273Z,96791.94
2022-08-21T17:44:27.441Z,96793.72
2022-08-21T17:48:25.364Z,96788.84
2022-08-21T17:52:24.488Z,96758.13
2022-08-21T17:56:22.570Z,96794.44
2022-08-21T18:00:21.238Z,96793.13
2022-08-21T18:04:18.436Z,96773.09
2022-08-21T18:08:16.017Z,96795.59
2022-08-21T18:12:13.958Z,96791.59
2022-08-21T18:16:19.330Z,96809.13
2022-08-21T18:20:21.271Z,96810.66
2022-08-21T18:24:18.328Z,96811.19
2022-08-21T18:28:17.793Z,96800.22
2022-08-21T18:32:31.674Z,96797.59
2022-08-21T18:36:29.795Z,96798.59
2022-08-21T18:40:26.949Z,96809.66
2022-08-21T18:44:27.685Z,96814.63
2022-08-21T18:48:26.848Z,96828.09
2022-08-21T18:52:28.573Z,96810.06
2022-08-21T18:56:28.384Z,96819.97
2022-08-21T19:00:35.822Z,96826.66
2022-08-21T19:04:43.929Z,96834.75
2022-08-21T19:08:41.603Z,96842.31
2022-08-21T19:12:39.877Z,96838.50
2022-08-21T19:16:40.053Z,96839.91
2022-08-21T19:20:44.747Z,96834.34
2022-08-21T19:24:49.871Z,96835.53
2022-08-21T19:28:54.010Z,96869.28
2022-08-21T19:32:51.242Z,96841.34
2022-08-21T19:36:48.719Z,96845.31
2022-08-21T19:40:45.773Z,96855.28
2022-08-21T19:44:45.401Z,96859.09
2022-08-21T19:48:43.022Z,96861.06
2022-08-21T19:52:48.308Z,96864.97
2022-08-21T19:56:49.645Z,96873.00
2022-08-21T20:00:46.971Z,96862.53
2022-08-21T20:09:02.565Z,96866.81
2022-08-21T20:13:04.766Z,96830.72
2022-08-21T20:17:14.853Z,96869.66
2022-08-21T20:21:13.470Z,96870.97
2022-08-21T20:25:12.004Z,96861.50
2022-08-21T20:29:10.923Z,96867.56
2022-08-21T20:33:08.347Z,96854.50
2022-08-21T20:37:05.864Z,96876.03
2022-08-21T20:41:03.799Z,96876.63
2022-08-21T20:45:08.351Z,96879.81
2022-08-21T20:49:08.368Z,96862.09
2022-08-21T20:53:16.355Z,96875.16
2022-08-21T20:57:15.509Z,96855.44
2022-08-21T21:01:12.920Z,96880.03
2022-08-21T21:05:42.618Z,96889.16
2022-08-21T21:09:47.719Z,96890.88
2022-08-21T21:14:10.516Z,96869.72
2022-08-21T21:18:22.604Z,96878.88
2022-08-21T21:22:57.677Z,96898.09
2022-08-21T21:27:02.478Z,96896.59
2022-08-21T21:31:12.702Z,96887.03
2022-08-21T21:35:16.263Z,96906.88
2022-08-21T21:40:12.330Z,96906.88
2022-08-21T21:44:55.782Z,96864.19
2022-08-21T21:49:36.313Z,96912.78
2022-08-21T21:54:11.360Z,96926.84
2022-08-21T21:58:37.357Z,96927.19
2022-08-21T22:02:57.138Z,96922.16
2022-08-21T22:07:13.073Z,96935.88
2022-08-21T22:11:40.694Z,96928.66
2022-08-21T22:15:38.537Z,96934.59
2022-08-21T22:19:43.171Z,96937.81
2022-08-21T22:23:52.727Z,96934.09
2022-08-21T22:28:00.599Z,96918.31
2022-08-21T22:32:10.619Z,96920.75
2022-08-21T22:36:20.633Z,96938.44
2022-08-21T22:40:36.276Z,96935.19
2022-08-21T22:44:33.487Z,96914.38
2022-08-21T22:48:36.565Z,96925.31
2022-08-21T22:52:37.492Z,96931.19
2022-08-21T22:56:46.202Z,96944.84
2022-08-21T23:01:00.691Z,96930.47
2022-08-21T23:05:10.325Z,96943.84
2022-08-21T23:09:28.471Z,96950.00
2022-08-21T23:13:37.768Z,96944.38
2022-08-21T23:18:21.474Z,96916.84
2022-08-21T23:22:36.461Z,96927.00
2022-08-21T23:26:59.575Z,96917.88
2022-08-21T23:31:50.934Z,96935.81
2022-08-21T23:36:25.638Z,96921.34
2022-08-21T23:40:31.569Z,96938.50
2022-08-21T23:45:13.509Z,96928.84
2022-08-21T23:49:44.112Z,96939.03
2022-08-21T23:54:09.769Z,96922.19
2022-08-21T23:58:21.922Z,96943.28
